Time;durP1;ratioP1;P1;durP2;ratioP2;P2;SDS_P1;SDS_P2;PMS_P1;PMS_P2;Temp;Humidity;BMP_temperature;BMP_pressure;BME280_temperature;BME280_humidity;BME280_pressure;Samples;Min_cycle;Max_cycle;Signal;HPM_P1;HPM_P2
2021/09/02 00:02:03;;;;;;;7.07;4.35;;;17.90;99.90;;;;;;5031502;28;20037;-59
2021/09/02 00:04:30;;;;;;;11.77;4.53;;;18.10;99.90;;;;;;5031374;28;20513;-59
2021/09/02 00:06:56;;;;;;;12.38;4.68;;;18.10;99.90;;;;;;5031361;28;20474;-59
2021/09/02 00:09:22;;;;;;;8.88;4.18;;;17.90;99.90;;;;;;5031433;28;20468;-59
2021/09/02 00:11:47;;;;;;;5.00;3.70;;;17.90;99.90;;;;;;5031381;28;20030;-60
2021/09/02 00:14:13;;;;;;;9.13;4.50;;;17.90;99.90;;;;;;5031403;28;20025;-60
2021/09/02 00:16:40;;;;;;;5.63;4.35;;;17.90;99.90;;;;;;5033388;28;20072;-59
2021/09/02 00:19:05;;;;;;;5.65;4.55;;;17.80;99.90;;;;;;5035060;28;20037;-60
2021/09/02 00:21:31;;;;;;;7.93;4.43;;;17.70;99.90;;;;;;5035060;28;20202;-59
2021/09/02 00:23:56;;;;;;;8.57;4.57;;;18.00;99.90;;;;;;5034823;28;20110;-59
2021/09/02 00:26:22;;;;;;;7.00;4.30;;;18.00;99.90;;;;;;5034932;28;20025;-60
2021/09/02 00:28:48;;;;;;;9.35;4.50;;;17.90;99.90;;;;;;5034772;28;20371;-60
2021/09/02 00:31:13;;;;;;;8.18;4.20;;;17.80;99.90;;;;;;5034778;28;20517;-59
2021/09/02 00:33:39;;;;;;;7.22;3.75;;;17.80;99.90;;;;;;5034680;28;20032;-59
2021/09/02 00:36:05;;;;;;;6.32;3.97;;;17.70;99.90;;;;;;5034711;28;20047;-60
2021/09/02 00:38:32;;;;;;;7.20;4.25;;;17.80;99.90;;;;;;5034299;28;20049;-59
2021/09/02 00:40:58;;;;;;;9.20;4.10;;;18.00;99.90;;;;;;5034516;28;20017;-59
2021/09/02 00:43:26;;;;;;;8.60;4.20;;;18.00;99.90;;;;;;5034520;28;20013;-60
2021/09/02 00:45:51;;;;;;;8.40;4.43;;;18.10;99.90;;;;;;5034902;28;20373;-60
2021/09/02 00:48:17;;;;;;;9.00;4.63;;;17.90;99.90;;;;;;5034523;28;20029;-60
2021/09/02 00:50:43;;;;;;;8.68;4.53;;;17.90;99.90;;;;;;5034478;28;20025;-59
2021/09/02 00:53:08;;;;;;;8.77;4.40;;;18.10;99.90;;;;;;5034320;28;20022;-59
2021/09/02 00:55:34;;;;;;;6.90;4.15;;;18.10;99.90;;;;;;5034472;28;20041;-59
2021/09/02 00:58:01;;;;;;;7.43;4.40;;;18.20;99.90;;;;;;5034360;28;20063;-59
2021/09/02 01:00:27;;;;;;;9.02;3.80;;;18.20;99.90;;;;;;5033977;28;20048;-59
2021/09/02 01:02:52;;;;;;;9.38;4.65;;;18.00;99.90;;;;;;5034008;28;20029;-59
2021/09/02 01:05:19;;;;;;;7.68;4.25;;;18.20;99.90;;;;;;5034194;28;20108;-59
2021/09/02 01:07:46;;;;;;;9.93;4.53;;;18.10;99.90;;;;;;5034270;28;20036;-59
2021/09/02 01:10:11;;;;;;;8.73;4.18;;;18.00;99.90;;;;;;5034583;28;20017;-60
2021/09/02 01:12:48;;;;;;;8.93;4.10;;;18.10;99.90;;;;;;5034223;28;20469;-59
2021/09/02 01:15:15;;;;;;;7.47;4.35;;;18.10;99.90;;;;;;5034147;28;20111;-59
2021/09/02 01:17:48;;;;;;;6.60;4.18;;;18.10;99.90;;;;;;5034001;28;20032;-59
2021/09/02 01:20:22;;;;;;;6.70;4.10;;;18.10;99.90;;;;;;5033835;28;20091;-59
2021/09/02 01:22:49;;;;;;;9.48;4.32;;;17.80;99.90;;;;;;5034026;28;20044;-59
2021/09/02 01:25:24;;;;;;;8.75;4.20;;;17.60;99.90;;;;;;5033869;28;20036;-59
2021/09/02 01:27:52;;;;;;;8.20;4.47;;;17.60;99.90;;;;;;5032788;28;20025;-59
2021/09/02 01:30:19;;;;;;;11.98;4.35;;;17.60;99.90;;;;;;5033489;28;20389;-60
2021/09/02 01:32:46;;;;;;;8.82;4.13;;;17.60;99.90;;;;;;5033552;28;20092;-59
2021/09/02 01:35:14;;;;;;;6.95;4.00;;;17.80;99.90;;;;;;5033709;28;20057;-59
2021/09/02 01:37:42;;;;;;;8.05;4.13;;;17.70;99.90;;;;;;5032013;28;20064;-59
2021/09/02 01:40:12;;;;;;;7.85;3.95;;;17.60;99.90;;;;;;5033666;28;20108;-60
2021/09/02 01:42:37;;;;;;;6.13;3.80;;;17.60;99.90;;;;;;5033612;28;20029;-60
2021/09/02 01:45:04;;;;;;;8.00;4.30;;;17.60;99.90;;;;;;5032023;28;20360;-59
2021/09/02 01:47:30;;;;;;;8.38;4.47;;;17.60;99.90;;;;;;5033250;28;20399;-59
2021/09/02 01:50:06;;;;;;;9.07;4.75;;;17.60;99.90;;;;;;5033244;28;20028;-59
2021/09/02 01:52:32;;;;;;;6.80;3.97;;;18.00;99.90;;;;;;5033321;28;20094;-59
2021/09/02 01:54:57;;;;;;;10.15;4.32;;;18.00;99.90;;;;;;5033316;28;20033;-59
2021/09/02 01:57:23;;;;;;;10.00;4.18;;;18.00;99.90;;;;;;5033195;28;20081;-60
2021/09/02 01:59:48;;;;;;;7.97;4.30;;;17.80;99.90;;;;;;5033220;28;20462;-59
2021/09/02 02:02:14;;;;;;;8.02;4.55;;;17.60;99.90;;;;;;5033167;28;20083;-59
2021/09/02 02:04:40;;;;;;;7.65;4.10;;;17.60;99.90;;;;;;5032803;28;20108;-59
2021/09/02 02:07:05;;;;;;;10.88;4.70;;;17.50;99.90;;;;;;5033015;28;20391;-59
2021/09/02 02:09:31;;;;;;;8.05;4.00;;;17.60;99.90;;;;;;5033007;28;20489;-59
2021/09/02 02:11:56;;;;;;;9.20;4.47;;;17.60;99.90;;;;;;5033165;28;20033;-59
2021/09/02 02:14:22;;;;;;;11.07;5.03;;;17.60;99.90;;;;;;5033035;28;20027;-59
2021/09/02 02:16:48;;;;;;;6.93;4.65;;;17.70;99.90;;;;;;5033043;28;20057;-59
2021/09/02 02:19:13;;;;;;;8.45;4.50;;;17.60;99.90;;;;;;5032872;28;20083;-59
2021/09/02 02:21:39;;;;;;;7.22;5.13;;;17.50;99.90;;;;;;5032720;28;20037;-59
2021/09/02 02:24:04;;;;;;;7.72;4.90;;;17.50;99.90;;;;;;5032703;28;20405;-60
2021/09/02 02:26:30;;;;;;;20.30;5.47;;;17.40;99.90;;;;;;5032658;28;20092;-59
2021/09/02 02:28:56;;;;;;;9.00;5.45;;;17.30;99.90;;;;;;5031225;28;20056;-60
2021/09/02 02:31:21;;;;;;;9.35;5.20;;;17.30;99.90;;;;;;5032644;28;20032;-60
2021/09/02 02:33:47;;;;;;;11.27;5.68;;;17.40;99.90;;;;;;5032691;28;20021;-60
2021/09/02 02:36:12;;;;;;;11.52;5.25;;;17.30;99.90;;;;;;5031096;28;20022;-59
2021/09/02 02:38:38;;;;;;;10.90;5.45;;;17.40;99.90;;;;;;5032356;28;20032;-59
2021/09/02 02:41:04;;;;;;;7.40;5.53;;;17.60;99.90;;;;;;5032286;28;20022;-60
2021/09/02 02:43:30;;;;;;;10.07;5.47;;;17.80;99.90;;;;;;5032162;28;20427;-59
2021/09/02 02:45:58;;;;;;;10.85;5.68;;;17.70;99.90;;;;;;5032268;28;20109;-59
2021/09/02 02:48:24;;;;;;;10.52;5.53;;;17.60;99.90;;;;;;5032348;28;20017;-59
2021/09/02 02:50:50;;;;;;;9.68;5.95;;;17.40;99.90;;;;;;5032311;28;20159;-59
2021/09/02 02:53:16;;;;;;;10.13;5.85;;;17.30;99.90;;;;;;5032208;28;20104;-59
2021/09/02 02:55:41;;;;;;;10.82;5.90;;;17.20;99.90;;;;;;5032264;28;20708;-59
2021/09/02 02:58:07;;;;;;;11.38;6.53;;;17.20;99.90;;;;;;5032140;28;20033;-59
2021/09/02 03:00:33;;;;;;;14.15;6.47;;;17.10;99.90;;;;;;5031016;28;20022;-59
2021/09/02 03:02:59;;;;;;;9.30;6.18;;;17.20;99.90;;;;;;5032130;28;20026;-59
2021/09/02 03:05:25;;;;;;;9.60;6.80;;;17.50;99.90;;;;;;5031889;28;20034;-59
2021/09/02 03:07:50;;;;;;;11.27;6.53;;;17.60;99.90;;;;;;5030673;28;20026;-59
2021/09/02 03:10:16;;;;;;;13.15;6.65;;;17.50;99.90;;;;;;5032113;28;20061;-59
2021/09/02 03:12:42;;;;;;;11.60;7.10;;;17.50;99.90;;;;;;5031896;28;20021;-59
2021/09/02 03:15:08;;;;;;;9.55;6.97;;;17.80;99.90;;;;;;5031768;28;20029;-59
2021/09/02 03:17:35;;;;;;;10.45;6.57;;;17.70;99.90;;;;;;5030604;28;20029;-59
2021/09/02 03:20:01;;;;;;;10.93;6.53;;;17.60;99.90;;;;;;5031901;28;20061;-59
2021/09/02 03:22:26;;;;;;;14.02;7.25;;;17.40;99.90;;;;;;5031883;28;20030;-59
2021/09/02 03:24:52;;;;;;;10.15;6.68;;;17.20;99.90;;;;;;5031744;28;20355;-60
2021/09/02 03:27:18;;;;;;;17.67;7.75;;;17.10;99.90;;;;;;5031786;28;20102;-59
2021/09/02 03:29:43;;;;;;;14.27;8.20;;;17.10;99.90;;;;;;5031735;28;20033;-59
2021/09/02 03:32:09;;;;;;;16.48;9.20;;;17.20;99.90;;;;;;5031723;28;20026;-59
2021/09/02 03:34:34;;;;;;;15.27;9.68;;;17.40;99.90;;;;;;5031829;28;20108;-59
2021/09/02 03:37:00;;;;;;;15.77;8.95;;;17.40;99.90;;;;;;5031216;28;20050;-59
2021/09/02 03:39:26;;;;;;;15.50;9.85;;;17.40;99.90;;;;;;5031798;28;20036;-60
2021/09/02 03:41:51;;;;;;;13.98;9.27;;;17.30;99.90;;;;;;5031642;28;20038;-59
2021/09/02 03:44:17;;;;;;;17.52;9.50;;;17.20;99.90;;;;;;5031512;28;20034;-59
2021/09/02 03:46:43;;;;;;;17.55;9.63;;;17.30;99.90;;;;;;5030469;28;20070;-59
2021/09/02 03:49:08;;;;;;;18.75;10.07;;;17.30;99.90;;;;;;5031938;28;20115;-59
2021/09/02 03:51:34;;;;;;;17.52;10.05;;;17.20;99.90;;;;;;5033379;28;20030;-59
2021/09/02 03:53:59;;;;;;;17.38;10.05;;;17.30;99.90;;;;;;5035422;28;20039;-59
2021/09/02 03:56:25;;;;;;;17.88;9.35;;;17.20;99.90;;;;;;5035358;28;20117;-59
2021/09/02 03:58:51;;;;;;;17.27;10.07;;;17.10;99.90;;;;;;5035339;28;20026;-59
2021/09/02 04:01:18;;;;;;;15.15;10.18;;;17.10;99.90;;;;;;5035224;28;20415;-59
2021/09/02 04:03:43;;;;;;;17.08;9.15;;;17.10;99.90;;;;;;5035191;28;20033;-59
2021/09/02 04:06:09;;;;;;;18.23;10.25;;;16.90;99.90;;;;;;5035135;28;20107;-59
2021/09/02 04:08:35;;;;;;;27.70;11.45;;;17.00;99.90;;;;;;5035168;28;20025;-59
2021/09/02 04:11:00;;;;;;;16.50;10.07;;;17.10;99.90;;;;;;5035163;28;20022;-59
2021/09/02 04:13:26;;;;;;;16.88;10.60;;;17.00;99.90;;;;;;5035138;28;20059;-59
2021/09/02 04:15:52;;;;;;;17.77;10.82;;;16.90;99.90;;;;;;5034828;28;20021;-59
2021/09/02 04:18:17;;;;;;;21.35;11.05;;;17.10;99.90;;;;;;5034871;28;20204;-59
2021/09/02 04:20:43;;;;;;;19.67;10.52;;;17.10;99.90;;;;;;5034896;28;20268;-59
2021/09/02 04:23:09;;;;;;;19.13;10.82;;;16.90;99.90;;;;;;5034736;28;20108;-59
2021/09/02 04:25:34;;;;;;;20.17;11.27;;;16.80;99.90;;;;;;5034674;28;20025;-59
2021/09/02 04:28:00;;;;;;;18.45;11.35;;;16.80;99.90;;;;;;5034868;28;20040;-61
2021/09/02 04:30:26;;;;;;;17.42;11.00;;;16.90;99.90;;;;;;5034679;28;20447;-59
2021/09/02 04:32:51;;;;;;;21.42;11.68;;;17.00;99.90;;;;;;5034716;28;20387;-59
2021/09/02 04:35:17;;;;;;;17.73;10.85;;;16.80;99.90;;;;;;5034614;28;20498;-59
2021/09/02 04:37:45;;;;;;;20.95;10.63;;;16.60;99.90;;;;;;5034468;28;20045;-59
2021/09/02 04:40:11;;;;;;;18.67;11.10;;;16.60;99.90;;;;;;5034587;28;20367;-59
2021/09/02 04:42:37;;;;;;;16.80;10.43;;;16.60;99.90;;;;;;5034522;28;20083;-59
2021/09/02 04:45:04;;;;;;;18.95;10.32;;;16.50;99.90;;;;;;5034568;28;20442;-59
2021/09/02 04:47:30;;;;;;;21.35;10.65;;;16.40;99.90;;;;;;5034267;28;20021;-59
2021/09/02 04:49:56;;;;;;;17.25;9.95;;;16.50;99.90;;;;;;5034317;28;20032;-59
2021/09/02 04:52:22;;;;;;;20.33;11.27;;;16.50;99.90;;;;;;5034345;28;20018;-59
2021/09/02 04:54:47;;;;;;;19.95;11.13;;;16.50;99.90;;;;;;5032946;28;20085;-59
2021/09/02 04:57:14;;;;;;;18.67;10.32;;;16.60;99.90;;;;;;5034176;28;20056;-59
2021/09/02 04:59:39;;;;;;;17.38;10.43;;;16.60;99.90;;;;;;5032860;28;20033;-59
2021/09/02 05:02:05;;;;;;;25.02;11.30;;;16.70;99.90;;;;;;5033297;28;20037;-59
2021/09/02 05:04:31;;;;;;;15.40;9.90;;;16.70;99.90;;;;;;5033649;28;20407;-59
2021/09/02 05:06:56;;;;;;;20.70;10.82;;;16.50;99.90;;;;;;5034428;28;20243;-59
2021/09/02 05:09:22;;;;;;;21.00;11.15;;;16.40;99.90;;;;;;5033951;28;20033;-59
2021/09/02 05:11:47;;;;;;;18.83;10.40;;;16.40;99.90;;;;;;5034022;28;20101;-59
2021/09/02 05:14:13;;;;;;;19.63;10.40;;;16.40;99.90;;;;;;5034071;28;20490;-59
2021/09/02 05:16:39;;;;;;;17.35;11.13;;;16.30;99.90;;;;;;5033892;28;20060;-59
2021/09/02 05:19:04;;;;;;;22.73;11.07;;;16.40;99.90;;;;;;5031121;28;20378;-59
2021/09/02 05:21:30;;;;;;;20.35;11.10;;;16.40;99.90;;;;;;5032814;28;20033;-59
2021/09/02 05:23:55;;;;;;;16.98;10.25;;;16.40;99.90;;;;;;5032984;28;20029;-59
2021/09/02 05:26:21;;;;;;;21.25;10.77;;;16.40;99.90;;;;;;5033258;28;20017;-59
2021/09/02 05:28:47;;;;;;;22.83;10.52;;;16.40;99.90;;;;;;5033557;28;20026;-60
2021/09/02 05:31:13;;;;;;;21.63;11.60;;;16.60;99.90;;;;;;5032832;28;20028;-60
2021/09/02 05:33:39;;;;;;;16.27;10.75;;;16.60;99.90;;;;;;5033534;28;20030;-60
2021/09/02 05:36:04;;;;;;;22.60;11.77;;;16.60;99.90;;;;;;5033531;28;20098;-59
2021/09/02 05:38:30;;;;;;;22.85;12.30;;;16.60;99.90;;;;;;5031868;28;20048;-59
2021/09/02 05:40:56;;;;;;;19.10;11.63;;;16.60;99.90;;;;;;5033307;28;20037;-59
2021/09/02 05:43:21;;;;;;;22.83;11.48;;;16.60;99.90;;;;;;5030686;28;20026;-59
2021/09/02 05:45:47;;;;;;;20.30;11.52;;;16.60;99.90;;;;;;5031598;28;20390;-60
2021/09/02 05:48:13;;;;;;;24.10;11.57;;;16.50;99.90;;;;;;5034993;28;20495;-59
2021/09/02 05:50:39;;;;;;;19.58;11.35;;;16.50;99.90;;;;;;5029380;28;20021;-60
2021/09/02 05:53:05;;;;;;;20.88;11.30;;;16.40;99.90;;;;;;5031131;28;20060;-59
2021/09/02 05:55:30;;;;;;;17.80;11.05;;;16.50;99.90;;;;;;5028380;28;20033;-59
2021/09/02 05:57:56;;;;;;;20.70;11.38;;;16.70;99.90;;;;;;5031164;28;20044;-59
2021/09/02 06:00:21;;;;;;;21.33;11.82;;;16.70;99.90;;;;;;5030570;28;20025;-60
2021/09/02 06:02:47;;;;;;;20.23;11.77;;;17.00;99.90;;;;;;5026083;28;20393;-59
2021/09/02 06:05:13;;;;;;;24.35;11.68;;;17.00;99.90;;;;;;5019845;28;20065;-59
2021/09/02 06:07:38;;;;;;;23.77;11.65;;;16.90;99.90;;;;;;5018230;28;20093;-59
2021/09/02 06:10:05;;;;;;;19.90;11.25;;;16.70;99.90;;;;;;5021035;28;20369;-59
2021/09/02 06:12:30;;;;;;;23.42;11.45;;;16.70;99.90;;;;;;5018630;28;20235;-59
2021/09/02 06:14:56;;;;;;;28.67;12.65;;;16.80;99.90;;;;;;5010934;28;20026;-59
2021/09/02 06:17:22;;;;;;;21.77;11.93;;;17.10;99.90;;;;;;5020128;28;20041;-59
2021/09/02 06:19:47;;;;;;;18.95;11.52;;;17.10;99.90;;;;;;5022506;28;20034;-60
2021/09/02 06:22:13;;;;;;;21.85;11.60;;;17.10;99.90;;;;;;5022996;28;20092;-59
2021/09/02 06:24:38;;;;;;;25.05;11.65;;;17.10;99.90;;;;;;5016827;28;20033;-59
2021/09/02 06:27:04;;;;;;;22.13;11.82;;;17.30;99.90;;;;;;5022465;28;20433;-59
2021/09/02 06:29:30;;;;;;;20.42;11.65;;;17.50;99.90;;;;;;5030559;28;20053;-59
2021/09/02 06:31:55;;;;;;;23.25;12.65;;;17.60;99.90;;;;;;5022231;28;20064;-59
2021/09/02 06:34:21;;;;;;;29.30;12.40;;;17.70;99.90;;;;;;5007845;28;20033;-60
2021/09/02 06:36:47;;;;;;;25.90;12.57;;;17.60;99.90;;;;;;5010622;28;20046;-59
2021/09/02 06:39:13;;;;;;;21.50;11.90;;;17.70;99.90;;;;;;5019945;28;20116;-59
2021/09/02 06:41:38;;;;;;;23.02;12.38;;;17.60;99.90;;;;;;5018917;28;20063;-59
2021/09/02 06:44:04;;;;;;;27.05;12.82;;;17.70;99.90;;;;;;5025926;28;20037;-59
2021/09/02 06:46:30;;;;;;;23.17;12.30;;;17.90;99.90;;;;;;5019291;28;20072;-59
2021/09/02 06:48:57;;;;;;;19.33;11.82;;;18.00;99.90;;;;;;5027371;28;20112;-60
2021/09/02 06:51:22;;;;;;;22.95;12.38;;;18.00;99.90;;;;;;5025925;28;20060;-60
2021/09/02 06:53:48;;;;;;;29.27;13.20;;;18.10;99.90;;;;;;5024692;28;20365;-59
2021/09/02 06:56:13;;;;;;;23.77;13.07;;;18.00;99.90;;;;;;5015529;28;20126;-60
2021/09/02 06:58:39;;;;;;;21.60;13.15;;;18.00;99.90;;;;;;5015325;28;20024;-59
2021/09/02 07:01:05;;;;;;;16.88;12.18;;;17.90;99.90;;;;;;5024028;28;20044;-59
2021/09/02 07:03:30;;;;;;;22.67;12.23;;;17.90;99.90;;;;;;5026342;28;20022;-60
2021/09/02 07:05:56;;;;;;;21.15;12.35;;;17.90;99.90;;;;;;5020102;28;20038;-60
2021/09/02 07:08:22;;;;;;;23.25;11.75;;;17.90;99.90;;;;;;5015986;28;20028;-60
2021/09/02 07:10:47;;;;;;;22.67;12.65;;;17.90;99.90;;;;;;5018577;28;21325;-59
2021/09/02 07:13:13;;;;;;;21.40;12.95;;;17.90;99.90;;;;;;5021329;28;20684;-60
2021/09/02 07:15:39;;;;;;;18.08;10.85;;;18.00;99.90;;;;;;5021031;28;20025;-59
2021/09/02 07:18:05;;;;;;;16.63;10.82;;;18.00;99.90;;;;;;5017678;28;20486;-60
2021/09/02 07:20:31;;;;;;;17.50;10.75;;;18.20;99.90;;;;;;5023498;28;20033;-59
2021/09/02 07:22:57;;;;;;;15.77;10.88;;;18.30;99.90;;;;;;5022964;28;20029;-60
2021/09/02 07:25:22;;;;;;;15.25;10.57;;;18.50;99.90;;;;;;5020606;28;20033;-59
2021/09/02 07:27:48;;;;;;;21.40;10.60;;;18.70;99.90;;;;;;5028084;28;20025;-59
2021/09/02 07:30:14;;;;;;;19.30;10.55;;;18.70;99.90;;;;;;5030467;28;20442;-59
2021/09/02 07:32:39;;;;;;;15.88;9.90;;;19.00;99.90;;;;;;5029217;28;20018;-60
2021/09/02 07:35:06;;;;;;;16.17;9.55;;;19.80;99.90;;;;;;5023386;28;20036;-59
2021/09/02 07:37:31;;;;;;;18.20;9.60;;;20.40;99.90;;;;;;5030435;28;20057;-59
2021/09/02 07:39:57;;;;;;;31.02;10.70;;;20.70;99.90;;;;;;5030855;28;20021;-60
2021/09/02 07:42:23;;;;;;;19.90;9.75;;;20.70;99.90;;;;;;5020173;28;20025;-60
2021/09/02 07:44:48;;;;;;;23.15;9.95;;;20.70;99.90;;;;;;5027571;28;20044;-59
2021/09/02 07:47:14;;;;;;;18.35;9.60;;;20.50;99.90;;;;;;5030194;28;20109;-59
2021/09/02 07:49:41;;;;;;;16.58;9.73;;;20.60;99.90;;;;;;5025550;28;20104;-59
2021/09/02 07:52:09;;;;;;;22.45;11.18;;;20.70;99.90;;;;;;5015746;28;20036;-60
2021/09/02 07:54:35;;;;;;;17.13;10.68;;;20.50;99.90;;;;;;5017561;28;20467;-60
2021/09/02 07:57:01;;;;;;;15.45;9.90;;;20.60;99.90;;;;;;5021327;28;20030;-59
2021/09/02 07:59:27;;;;;;;18.15;10.27;;;20.60;99.90;;;;;;5020402;28;20328;-59
2021/09/02 08:01:52;;;;;;;16.67;10.10;;;20.70;99.90;;;;;;5022053;28;20037;-60
2021/09/02 08:04:18;;;;;;;17.77;11.23;;;20.70;99.90;;;;;;5017144;28;20025;-59
2021/09/02 08:06:44;;;;;;;20.70;10.85;;;20.60;99.90;;;;;;5028305;28;20026;-60
2021/09/02 08:09:09;;;;;;;19.23;11.20;;;20.60;99.90;;;;;;5028502;28;20114;-59
2021/09/02 08:11:35;;;;;;;17.52;11.15;;;20.70;99.90;;;;;;5029325;28;20036;-60
2021/09/02 08:14:00;;;;;;;20.50;11.68;;;21.00;99.90;;;;;;5025939;28;20028;-60
2021/09/02 08:16:26;;;;;;;20.17;10.80;;;21.20;99.90;;;;;;5026723;28;20159;-59
2021/09/02 08:18:52;;;;;;;19.95;11.80;;;21.40;99.90;;;;;;5022269;28;20112;-59
2021/09/02 08:21:19;;;;;;;22.23;11.18;;;21.60;99.90;;;;;;5022564;28;20025;-59
2021/09/02 08:23:44;;;;;;;21.25;10.57;;;21.80;99.90;;;;;;5011908;28;20171;-60
2021/09/02 08:26:10;;;;;;;18.40;10.55;;;22.30;99.90;;;;;;5012268;28;20033;-60
2021/09/02 08:28:36;;;;;;;17.90;10.20;;;22.80;99.90;;;;;;5020452;28;20112;-60
2021/09/02 08:31:02;;;;;;;19.95;11.18;;;23.10;99.90;;;;;;5007887;28;20030;-60
2021/09/02 08:33:28;;;;;;;20.50;11.30;;;22.80;99.90;;;;;;5016276;28;20044;-60
2021/09/02 08:35:53;;;;;;;15.63;9.75;;;23.00;99.90;;;;;;5023885;28;20045;-59
2021/09/02 08:38:20;;;;;;;18.15;11.40;;;23.30;99.90;;;;;;5029861;28;20060;-60
2021/09/02 08:40:46;;;;;;;15.80;11.13;;;23.20;99.70;;;;;;5014563;28;20029;-60
2021/09/02 08:43:12;;;;;;;19.58;10.65;;;23.60;99.40;;;;;;5018566;28;20020;-60
2021/09/02 08:45:37;;;;;;;17.80;11.48;;;23.80;99.00;;;;;;5028951;28;20040;-60
2021/09/02 08:48:04;;;;;;;16.83;11.20;;;24.40;98.20;;;;;;5030447;28;20104;-59
2021/09/02 08:50:34;;;;;;;20.23;10.98;;;24.50;98.20;;;;;;5026405;28;20021;-60
2021/09/02 08:53:01;;;;;;;19.60;11.30;;;25.10;97.30;;;;;;5026123;28;20474;-61
2021/09/02 08:55:26;;;;;;;15.02;10.25;;;25.30;96.20;;;;;;5032666;28;20067;-61
2021/09/02 08:57:54;;;;;;;16.13;11.15;;;25.70;95.40;;;;;;5026594;28;20434;-61
2021/09/02 09:00:21;;;;;;;16.88;10.65;;;26.20;94.20;;;;;;5022713;28;20025;-61
2021/09/02 09:02:55;;;;;;;17.15;10.98;;;26.30;94.30;;;;;;5019211;28;20398;-61
2021/09/02 09:05:20;;;;;;;17.92;10.55;;;26.50;93.50;;;;;;5023229;28;20033;-61
2021/09/02 09:07:48;;;;;;;16.92;11.05;;;26.50;93.50;;;;;;5018356;28;20029;-62
2021/09/02 09:10:18;;;;;;;17.52;11.70;;;27.00;91.80;;;;;;5026192;28;20026;-61
2021/09/02 09:12:45;;;;;;;17.55;11.43;;;26.30;92.40;;;;;;5024940;28;20124;-61
2021/09/02 09:15:24;;;;;;;19.70;12.50;;;26.10;92.90;;;;;;5022379;28;20120;-62
2021/09/02 09:17:53;;;;;;;17.85;12.13;;;26.10;92.50;;;;;;5011856;28;20044;-61
2021/09/02 09:20:21;;;;;;;17.00;11.50;;;25.50;93.40;;;;;;5016561;28;20068;-61
2021/09/02 09:22:56;;;;;;;16.05;11.25;;;25.80;93.80;;;;;;5021509;28;20057;-61
2021/09/02 09:25:23;;;;;;;19.55;11.02;;;26.10;93.50;;;;;;5020264;28;20079;-61
2021/09/02 09:27:54;;;;;;;19.00;11.50;;;26.20;93.00;;;;;;5022872;28;20512;-61
2021/09/02 09:30:30;;;;;;;17.23;10.57;;;25.90;92.90;;;;;;5021910;28;21561;-61
2021/09/02 09:32:57;;;;;;;14.40;10.80;;;26.00;93.00;;;;;;5021314;28;20566;-61
2021/09/02 09:35:24;;;;;;;18.48;11.38;;;25.90;93.40;;;;;;5021501;28;20040;-62
2021/09/02 09:38:10;;;;;;;17.75;11.98;;;26.10;93.00;;;;;;5023559;28;20054;-56
2021/09/02 09:40:37;;;;;;;21.42;12.60;;;26.20;92.60;;;;;;5019845;28;20033;-56
2021/09/02 09:43:09;;;;;;;18.63;12.82;;;26.10;92.80;;;;;;5018948;28;20018;-56
2021/09/02 09:45:47;;;;;;;15.98;11.32;;;26.20;92.60;;;;;;5020711;28;20516;-56
2021/09/02 09:48:22;;;;;;;20.02;11.40;;;25.80;93.70;;;;;;5029627;28;20030;-56
2021/09/02 09:51:09;;;;;;;20.83;10.55;;;25.70;93.20;;;;;;5040558;23;20248;-79
2021/09/02 09:53:35;;;;;;;17.05;11.70;;;25.90;93.40;;;;;;5044567;28;20036;-82
2021/09/02 09:56:01;;;;;;;20.63;11.40;;;25.50;92.70;;;;;;5022874;28;20079;-82
2021/09/02 09:58:28;;;;;;;17.17;10.80;;;25.90;93.20;;;;;;5033522;28;20025;-82
2021/09/02 10:00:59;;;;;;;18.33;10.90;;;25.30;93.40;;;;;;5034321;28;20375;-82
2021/09/02 10:03:25;;;;;;;18.67;11.15;;;25.30;94.00;;;;;;5024442;28;20026;-78
2021/09/02 10:05:52;;;;;;;19.42;10.70;;;25.00;93.80;;;;;;5027216;28;20026;-78
2021/09/02 10:08:20;;;;;;;14.60;10.15;;;25.40;94.40;;;;;;5046133;28;20026;-80
2021/09/02 10:10:49;;;;;;;15.90;10.48;;;26.10;93.50;;;;;;5029266;28;20078;-79
2021/09/02 10:13:16;;;;;;;17.23;10.93;;;25.80;93.00;;;;;;5029025;28;21833;-80
2021/09/02 10:15:42;;;;;;;16.27;11.25;;;25.40;93.80;;;;;;5029010;28;20112;-79
2021/09/02 10:18:08;;;;;;;16.65;11.48;;;24.80;94.30;;;;;;5019916;28;20053;-79
2021/09/02 10:20:35;;;;;;;17.08;10.20;;;24.90;94.90;;;;;;5028418;28;20034;-81
2021/09/02 10:23:03;;;;;;;19.58;11.57;;;25.80;94.60;;;;;;5030516;28;20021;-84
2021/09/02 10:25:40;;;;;;;20.60;11.38;;;25.60;93.30;;;;;;5030549;28;20025;-82
2021/09/02 10:28:11;;;;;;;18.85;11.10;;;25.50;93.80;;;;;;5025085;28;20033;-81
2021/09/02 10:30:46;;;;;;;21.87;11.60;;;26.10;93.00;;;;;;5029262;28;20018;-82
2021/09/02 10:33:32;;;;;;;18.48;11.95;;;26.30;92.60;;;;;;5029278;28;20470;-82
2021/09/02 10:36:11;;;;;;;19.30;12.43;;;25.80;93.20;;;;;;5002099;28;20107;-80
2021/09/02 10:38:50;;;;;;;22.63;11.55;;;25.80;93.40;;;;;;5002132;28;20036;-80
2021/09/02 10:41:40;;;;;;;22.80;12.82;;;25.80;94.30;;;;;;5001233;28;20093;-82
2021/09/02 10:44:20;;;;;;;19.98;11.43;;;26.00;92.80;;;;;;5009458;28;20045;-83
2021/09/02 10:46:51;;;;;;;19.38;12.48;;;26.40;93.10;;;;;;4996823;28;20204;-83
2021/09/02 10:49:28;;;;;;;18.30;12.40;;;26.70;92.20;;;;;;5002555;28;20021;-81
2021/09/02 10:52:20;;;;;;;26.13;12.90;;;26.60;91.80;;;;;;5008938;28;20042;-81
2021/09/02 10:54:45;;;;;;;25.98;13.00;;;26.10;93.10;;;;;;5005689;28;20049;-83
2021/09/02 10:57:12;;;;;;;21.45;12.27;;;26.40;92.90;;;;;;5010011;28;20030;-80
2021/09/02 10:59:46;;;;;;;23.70;12.57;;;25.70;94.00;;;;;;5001233;28;20022;-83
2021/09/02 11:02:18;;;;;;;27.45;14.25;;;24.90;95.00;;;;;;5019878;28;20145;-83
2021/09/02 11:05:05;;;;;;;22.65;14.25;;;24.20;95.50;;;;;;5007893;28;20450;-81
2021/09/02 11:07:39;;;;;;;23.73;14.45;;;24.20;96.10;;;;;;4998472;28;20026;-82
2021/09/02 11:10:13;;;;;;;22.70;14.27;;;24.40;95.40;;;;;;5010912;28;20379;-81
2021/09/02 11:12:39;;;;;;;19.80;13.10;;;24.30;96.20;;;;;;5009807;28;20076;-79
2021/09/02 11:15:07;;;;;;;20.77;12.98;;;25.00;95.70;;;;;;5025136;28;20378;-79
2021/09/02 11:17:32;;;;;;;22.90;14.25;;;25.40;94.50;;;;;;5007560;28;20033;-79
2021/09/02 11:19:58;;;;;;;21.75;13.20;;;25.00;94.80;;;;;;5012636;28;20053;-79
2021/09/02 11:22:24;;;;;;;19.35;12.60;;;25.30;94.70;;;;;;5007072;28;20117;-79
2021/09/02 11:24:52;;;;;;;17.55;12.25;;;25.10;94.60;;;;;;5010314;28;20069;-79
2021/09/02 11:27:37;;;;;;;17.90;12.57;;;25.60;94.30;;;;;;5003041;28;20041;-79
2021/09/02 11:30:11;;;;;;;19.73;12.77;;;26.20;93.00;;;;;;5030774;28;20096;-79
2021/09/02 11:32:37;;;;;;;19.00;11.82;;;26.50;92.20;;;;;;5012368;28;20025;-80
2021/09/02 11:35:03;;;;;;;20.27;12.13;;;26.80;92.20;;;;;;5009790;28;20502;-80
2021/09/02 11:37:37;;;;;;;21.30;12.93;;;27.00;91.30;;;;;;5004800;28;20118;-79
2021/09/02 11:40:03;;;;;;;18.33;11.65;;;27.00;91.60;;;;;;5009230;28;20053;-79
2021/09/02 11:42:32;;;;;;;22.02;11.88;;;26.90;91.70;;;;;;5005647;28;20112;-79
2021/09/02 11:44:59;;;;;;;16.67;11.40;;;26.40;91.60;;;;;;5005027;28;20030;-79
2021/09/02 11:47:33;;;;;;;14.25;9.20;;;26.50;91.40;;;;;;5006879;28;20030;-78
2021/09/02 11:49:59;;;;;;;13.27;9.90;;;26.50;92.40;;;;;;5008488;28;20056;-82
2021/09/02 11:52:25;;;;;;;14.73;8.65;;;26.30;92.50;;;;;;5009338;28;20049;-80
2021/09/02 11:54:51;;;;;;;19.48;11.88;;;26.30;92.60;;;;;;5005109;28;20034;-82
2021/09/02 11:57:24;;;;;;;14.30;10.35;;;26.00;92.50;;;;;;5009004;28;20097;-82
2021/09/02 11:59:50;;;;;;;16.63;10.60;;;26.80;92.00;;;;;;4999689;28;20022;-81
2021/09/02 12:02:16;;;;;;;25.63;10.23;;;28.00;91.10;;;;;;5014719;28;20439;-80
2021/09/02 12:04:48;;;;;;;18.48;11.15;;;27.60;91.40;;;;;;5010354;28;20038;-80
2021/09/02 12:07:14;;;;;;;23.23;10.13;;;26.70;92.00;;;;;;5008396;28;20022;-80
2021/09/02 12:09:43;;;;;;;17.13;11.80;;;26.40;92.60;;;;;;5011219;28;20837;-80
2021/09/02 12:12:09;;;;;;;18.33;11.73;;;26.70;91.50;;;;;;5015775;28;20030;-83
2021/09/02 12:14:35;;;;;;;19.75;11.35;;;27.10;91.50;;;;;;5016403;28;20037;-82
2021/09/02 12:17:12;;;;;;;17.55;11.75;;;27.20;92.20;;;;;;5008605;28;20152;-78
2021/09/02 12:19:59;;;;;;;18.02;12.13;;;27.40;90.90;;;;;;4975335;28;20033;-78
2021/09/02 12:22:37;;;;;;;19.35;10.38;;;27.20;90.80;;;;;;5008678;28;20037;-79
2021/09/02 12:25:21;;;;;;;16.52;10.38;;;28.00;90.60;;;;;;5012575;28;20486;-78
2021/09/02 12:27:53;;;;;;;15.43;10.10;;;29.20;88.40;;;;;;4994293;28;20033;-78
2021/09/02 12:30:39;;;;;;;19.88;11.05;;;29.90;87.40;;;;;;5008165;28;20079;-78
2021/09/02 12:33:12;;;;;;;16.02;10.30;;;29.60;86.30;;;;;;5007290;28;20027;-78
2021/09/02 12:35:42;;;;;;;16.67;11.00;;;29.80;86.40;;;;;;5013452;28;20101;-79